Time;durP1;ratioP1;P1;durP2;ratioP2;P2;SDS_P1;SDS_P2;PMS_P1;PMS_P2;Temp;Humidity;BMP_temperature;BMP_pressure;BME280_temperature;BME280_humidity;BME280_pressure;Samples;Min_cycle;Max_cycle;Signal;HPM_P1;HPM_P2
2022/03/23 00:00:46;;;;;;;53.33;37.85;;;10.90;99.90;;;;;;5093411;28;20047;-60
2022/03/23 00:03:16;;;;;;;57.47;37.17;;;10.80;99.90;;;;;;5092845;28;20500;-60
2022/03/23 00:05:42;;;;;;;54.45;38.42;;;10.80;99.90;;;;;;5092827;28;20105;-60
2022/03/23 00:08:10;;;;;;;52.42;38.53;;;10.80;99.90;;;;;;5092843;28;20688;-60
2022/03/23 00:10:37;;;;;;;50.17;37.33;;;10.80;99.90;;;;;;5092727;28;20048;-60
2022/03/23 00:13:03;;;;;;;53.67;36.83;;;10.70;99.90;;;;;;5092562;28;20047;-60
2022/03/23 00:15:30;;;;;;;52.55;37.55;;;10.70;99.90;;;;;;5092893;28;20476;-60
2022/03/23 00:17:56;;;;;;;52.17;37.90;;;10.60;99.90;;;;;;5092784;28;20458;-60
2022/03/23 00:20:23;;;;;;;50.22;37.38;;;10.50;99.90;;;;;;5092738;28;20150;-60
2022/03/23 00:22:49;;;;;;;54.92;38.17;;;10.60;99.90;;;;;;5092506;28;20036;-59
2022/03/23 00:25:14;;;;;;;49.75;38.55;;;10.40;99.90;;;;;;5092705;28;20032;-60
2022/03/23 00:27:40;;;;;;;47.55;37.13;;;10.30;99.90;;;;;;5092269;28;20080;-60
2022/03/23 00:30:07;;;;;;;56.53;39.05;;;10.30;99.90;;;;;;5092271;28;20055;-60
2022/03/23 00:32:34;;;;;;;55.70;38.67;;;10.20;99.90;;;;;;5092668;28;20048;-59
2022/03/23 00:35:00;;;;;;;55.22;38.05;;;10.20;99.90;;;;;;5092280;28;20032;-60
2022/03/23 00:37:26;;;;;;;49.85;36.72;;;10.10;99.90;;;;;;5092340;28;20040;-60
2022/03/23 00:39:52;;;;;;;52.60;38.17;;;10.10;99.90;;;;;;5091847;28;20039;-60
2022/03/23 00:42:17;;;;;;;54.00;37.85;;;10.10;99.90;;;;;;5092048;28;20067;-60
2022/03/23 00:44:43;;;;;;;55.20;37.70;;;10.20;99.90;;;;;;5091936;28;20036;-60
2022/03/23 00:47:09;;;;;;;52.20;37.05;;;10.20;99.90;;;;;;5091785;28;20056;-60
2022/03/23 00:49:36;;;;;;;51.95;38.63;;;10.20;99.90;;;;;;5091730;28;20032;-60
2022/03/23 00:52:05;;;;;;;51.15;37.65;;;10.20;99.90;;;;;;5092078;28;20047;-60
2022/03/23 00:54:34;;;;;;;;;;;10.20;99.90;;;;;;5092374;28;20040;-60
2022/03/23 00:57:07;;;;;;;57.60;38.35;;;10.10;99.90;;;;;;5092094;28;19920;-60
2022/03/23 00:59:34;;;;;;;55.63;38.17;;;10.10;99.90;;;;;;5092075;28;20127;-59
2022/03/23 01:02:00;;;;;;;48.05;36.88;;;10.10;99.90;;;;;;5091903;28;20032;-60
2022/03/23 01:04:26;;;;;;;52.47;39.33;;;10.10;99.90;;;;;;5091661;28;20036;-60
2022/03/23 01:06:52;;;;;;;52.33;36.85;;;10.10;99.90;;;;;;5091864;28;20040;-60
2022/03/23 01:09:23;;;;;;;53.28;39.25;;;9.90;99.90;;;;;;5091742;28;20043;-60
2022/03/23 01:11:54;;;;;;;52.38;38.10;;;9.80;99.90;;;;;;5091919;28;20375;-59
2022/03/23 01:14:22;;;;;;;50.50;38.05;;;9.70;99.90;;;;;;5091888;28;20040;-60
2022/03/23 01:16:49;;;;;;;50.80;36.03;;;9.70;99.90;;;;;;5093958;28;20048;-60
2022/03/23 01:19:16;;;;;;;52.83;37.55;;;9.70;99.90;;;;;;5096151;28;20435;-60
2022/03/23 01:21:42;;;;;;;49.90;37.22;;;9.60;99.90;;;;;;5094476;28;20093;-60
2022/03/23 01:24:08;;;;;;;55.20;38.47;;;9.60;99.90;;;;;;5095973;28;20043;-60
2022/03/23 01:26:34;;;;;;;54.75;38.83;;;9.50;99.90;;;;;;5095962;28;20032;-60
2022/03/23 01:29:00;;;;;;;55.25;39.58;;;9.50;99.90;;;;;;5095668;28;20052;-60
2022/03/23 01:31:27;;;;;;;53.05;38.17;;;9.50;99.90;;;;;;5095982;28;20209;-60
2022/03/23 01:33:59;;;;;;;46.90;35.85;;;9.40;99.90;;;;;;5095972;28;20058;-60
2022/03/23 01:36:27;;;;;;;53.85;38.25;;;9.30;99.90;;;;;;5095602;28;20397;-60
2022/03/23 01:38:53;;;;;;;50.60;37.40;;;9.30;99.90;;;;;;5095295;28;20047;-60
2022/03/23 01:41:19;;;;;;;55.75;38.38;;;9.20;99.90;;;;;;5095292;28;20040;-60
2022/03/23 01:43:45;;;;;;;55.35;38.28;;;9.20;99.90;;;;;;5093768;28;20036;-60
2022/03/23 01:46:12;;;;;;;55.38;39.03;;;9.20;99.90;;;;;;5095604;28;20131;-60
2022/03/23 01:48:37;;;;;;;62.45;40.33;;;9.10;99.90;;;;;;5095477;28;20052;-60
2022/03/23 01:51:03;;;;;;;56.47;37.75;;;9.00;99.90;;;;;;5095562;28;20040;-60
2022/03/23 01:53:29;;;;;;;58.08;38.78;;;9.00;99.90;;;;;;5095343;28;20479;-59
2022/03/23 01:55:55;;;;;;;50.65;36.55;;;8.90;99.90;;;;;;5095356;28;20040;-60
2022/03/23 01:58:21;;;;;;;58.20;38.92;;;8.90;99.90;;;;;;5095076;28;20472;-59
2022/03/23 02:00:47;;;;;;;53.97;38.58;;;8.90;99.90;;;;;;5095487;28;20032;-60
2022/03/23 02:03:13;;;;;;;55.60;38.50;;;8.90;99.90;;;;;;5094905;28;20496;-60
2022/03/23 02:05:38;;;;;;;51.85;38.10;;;8.90;99.90;;;;;;5094752;28;20036;-60
2022/03/23 02:08:05;;;;;;;51.55;38.28;;;8.90;99.90;;;;;;5094716;28;20040;-60
2022/03/23 02:10:31;;;;;;;54.25;37.40;;;8.80;99.90;;;;;;5094736;28;20447;-60
2022/03/23 02:12:57;;;;;;;56.42;39.15;;;8.80;99.90;;;;;;5094640;28;20127;-60
2022/03/23 02:15:25;;;;;;;57.45;38.30;;;8.80;99.90;;;;;;5094856;28;20044;-60
2022/03/23 02:17:53;;;;;;;56.72;38.45;;;8.70;99.90;;;;;;5094579;28;20046;-60
2022/03/23 02:20:19;;;;;;;52.85;37.75;;;8.60;99.90;;;;;;5094651;28;20146;-60
2022/03/23 02:22:45;;;;;;;54.47;37.20;;;8.50;99.90;;;;;;5094619;28;20072;-60
2022/03/23 02:25:10;;;;;;;55.25;38.65;;;8.50;99.90;;;;;;5094400;28;20078;-60
2022/03/23 02:27:38;;;;;;;54.15;37.78;;;8.30;99.90;;;;;;5094551;28;20039;-60
2022/03/23 02:30:06;;;;;;;56.10;37.70;;;8.30;99.90;;;;;;5094723;28;20040;-60
2022/03/23 02:32:32;;;;;;;55.37;37.23;;;8.20;99.90;;;;;;5094528;28;20040;-60
2022/03/23 02:35:01;;;;;;;51.25;38.35;;;8.40;99.90;;;;;;5093240;28;20105;-59
2022/03/23 02:37:27;;;;;;;58.88;38.28;;;8.20;99.90;;;;;;5094553;28;20031;-60
2022/03/23 02:39:54;;;;;;;53.10;37.17;;;8.30;99.90;;;;;;5094409;28;20040;-60
2022/03/23 02:42:19;;;;;;;54.00;37.45;;;8.30;99.90;;;;;;5094550;28;20043;-60
2022/03/23 02:44:45;;;;;;;57.15;37.22;;;8.30;99.90;;;;;;5094367;28;20036;-59
2022/03/23 02:47:12;;;;;;;56.42;38.63;;;8.30;99.90;;;;;;5094237;28;20095;-60
2022/03/23 02:49:39;;;;;;;53.33;38.63;;;8.20;99.90;;;;;;5094503;28;20047;-59
2022/03/23 02:52:04;;;;;;;49.58;36.30;;;8.00;99.90;;;;;;5094211;28;20054;-60
2022/03/23 03:03:26;;;;;;;51.40;36.67;;;7.90;99.90;;;;;;5094189;28;20044;-60
2022/03/23 03:05:52;;;;;;;59.78;38.10;;;7.90;99.90;;;;;;5094078;28;20075;-60
2022/03/23 03:11:02;;;;;;;52.50;37.13;;;7.80;99.90;;;;;;5093734;28;20421;-59
2022/03/23 03:13:29;;;;;;;56.28;38.33;;;7.70;99.90;;;;;;5093893;28;20102;-60
2022/03/23 03:16:00;;;;;;;61.25;40.08;;;7.60;99.90;;;;;;5093699;28;20119;-60
2022/03/23 03:18:26;;;;;;;58.03;39.13;;;7.60;99.90;;;;;;5093749;28;20078;-60
2022/03/23 03:20:51;;;;;;;53.85;37.65;;;7.50;99.90;;;;;;5092549;28;20044;-60
2022/03/23 03:23:17;;;;;;;53.83;38.50;;;7.50;99.90;;;;;;5092278;28;20450;-60
2022/03/23 03:25:42;;;;;;;53.13;37.00;;;7.50;99.90;;;;;;5093442;28;20058;-59
2022/03/23 03:28:08;;;;;;;52.35;37.20;;;7.50;99.90;;;;;;5093651;28;20466;-60
2022/03/23 03:30:34;;;;;;;59.10;39.28;;;7.50;99.90;;;;;;5093698;28;20454;-60
2022/03/23 03:32:59;;;;;;;53.15;37.45;;;7.40;99.90;;;;;;5093179;28;20522;-60
2022/03/23 03:35:25;;;;;;;55.30;37.90;;;7.40;99.90;;;;;;5093159;28;20032;-60
2022/03/23 03:37:51;;;;;;;58.10;38.90;;;7.40;99.90;;;;;;5093030;28;20071;-60
2022/03/23 03:40:16;;;;;;;60.90;40.10;;;7.30;99.90;;;;;;5092611;28;20044;-60
2022/03/23 03:42:42;;;;;;;54.97;40.38;;;7.30;99.90;;;;;;5093566;28;20044;-61
2022/03/23 03:45:08;;;;;;;59.58;40.33;;;7.30;99.90;;;;;;5092250;28;20557;-60
2022/03/23 03:47:34;;;;;;;51.75;36.88;;;7.30;99.90;;;;;;5092927;28;20040;-60
2022/03/23 03:50:01;;;;;;;53.05;38.05;;;7.30;99.90;;;;;;5093155;28;20044;-60
2022/03/23 03:52:26;;;;;;;53.70;37.40;;;7.30;99.90;;;;;;5092965;28;20039;-60
2022/03/23 03:54:52;;;;;;;51.85;36.80;;;7.20;99.90;;;;;;5092940;28;20039;-60
2022/03/23 03:57:18;;;;;;;54.60;36.15;;;7.20;99.90;;;;;;5091758;28;20043;-60
2022/03/23 03:59:43;;;;;;;55.80;36.75;;;7.20;99.90;;;;;;5092907;28;20101;-60
2022/03/23 04:02:09;;;;;;;51.92;36.75;;;7.30;99.90;;;;;;5092815;28;20494;-60
2022/03/23 04:04:35;;;;;;;55.13;36.97;;;7.20;99.90;;;;;;5092798;28;20112;-60
2022/03/23 04:07:01;;;;;;;55.03;36.42;;;7.20;99.90;;;;;;5093213;28;20040;-60
2022/03/23 04:09:27;;;;;;;54.97;38.50;;;7.10;99.90;;;;;;5092616;28;20044;-60
2022/03/23 04:11:53;;;;;;;54.70;36.13;;;7.10;99.90;;;;;;5092967;28;20497;-60
2022/03/23 04:14:19;;;;;;;54.55;36.38;;;6.90;99.90;;;;;;5092815;28;20042;-60
2022/03/23 04:16:44;;;;;;;55.55;38.50;;;7.00;99.90;;;;;;5091390;28;20036;-59
2022/03/23 04:19:10;;;;;;;55.60;37.45;;;7.00;99.90;;;;;;5092732;28;20040;-60
2022/03/23 04:21:36;;;;;;;52.92;36.40;;;7.00;99.90;;;;;;5092630;28;20072;-60
2022/03/23 04:24:02;;;;;;;52.95;37.97;;;7.00;99.90;;;;;;5092383;28;20032;-60
2022/03/23 04:26:27;;;;;;;54.30;36.85;;;6.90;99.90;;;;;;5092476;28;20036;-60
2022/03/23 04:28:53;;;;;;;54.58;38.42;;;6.90;99.90;;;;;;5092751;28;20093;-60
2022/03/23 04:31:20;;;;;;;57.22;37.78;;;6.80;99.90;;;;;;5092619;28;20532;-60
2022/03/23 04:33:46;;;;;;;61.85;39.47;;;6.90;99.90;;;;;;5092530;28;20514;-60
2022/03/23 04:36:12;;;;;;;52.85;37.33;;;6.80;99.90;;;;;;5092284;28;20071;-60
2022/03/23 04:38:37;;;;;;;58.03;38.75;;;6.80;99.90;;;;;;5090382;28;20139;-60
2022/03/23 04:41:04;;;;;;;49.10;35.03;;;6.80;99.90;;;;;;5092153;28;20189;-60
2022/03/23 04:43:31;;;;;;;58.42;38.90;;;6.70;99.90;;;;;;5092334;28;20501;-59
2022/03/23 04:45:56;;;;;;;59.63;37.72;;;6.70;99.90;;;;;;5092117;28;20113;-60
2022/03/23 04:48:24;;;;;;;56.75;37.83;;;6.70;99.90;;;;;;5091995;28;20052;-60
2022/03/23 04:50:49;;;;;;;56.47;37.90;;;6.80;99.90;;;;;;5091019;28;20082;-60
2022/03/23 04:53:16;;;;;;;54.95;37.25;;;6.70;99.90;;;;;;5091850;28;20121;-60
2022/03/23 04:55:41;;;;;;;55.50;38.08;;;6.70;99.90;;;;;;5091932;28;20051;-59
2022/03/23 04:58:07;;;;;;;57.78;40.03;;;6.80;99.90;;;;;;5091886;28;20048;-60
2022/03/23 05:00:34;;;;;;;61.63;41.17;;;6.70;99.90;;;;;;5090346;28;20045;-60
2022/03/23 05:03:00;;;;;;;61.47;41.20;;;6.60;99.90;;;;;;5091662;28;20497;-61
2022/03/23 05:05:26;;;;;;;59.22;38.70;;;6.70;99.90;;;;;;5091727;28;20039;-61
2022/03/23 05:07:52;;;;;;;71.18;41.42;;;6.70;99.90;;;;;;5091688;28;20036;-60
2022/03/23 05:10:17;;;;;;;63.10;40.75;;;6.70;99.90;;;;;;5091675;28;20039;-61
2022/03/23 05:12:45;;;;;;;69.15;40.38;;;6.70;99.90;;;;;;5092024;28;20081;-60
2022/03/23 05:15:13;;;;;;;59.80;40.63;;;6.70;99.90;;;;;;5091909;28;20474;-60
2022/03/23 05:17:40;;;;;;;56.38;38.72;;;6.60;99.90;;;;;;5090624;28;20613;-60
2022/03/23 05:20:08;;;;;;;59.85;39.72;;;6.70;99.90;;;;;;5091774;28;20028;-60
2022/03/23 05:22:34;;;;;;;60.25;42.25;;;6.70;99.90;;;;;;5091712;28;20038;-60
2022/03/23 05:25:00;;;;;;;56.42;38.97;;;6.70;99.90;;;;;;5091786;28;20036;-60
2022/03/23 05:27:25;;;;;;;60.60;40.05;;;6.70;99.90;;;;;;5091692;28;20067;-60
2022/03/23 05:29:51;;;;;;;58.88;39.92;;;6.60;99.90;;;;;;5091580;28;20036;-60
2022/03/23 05:32:18;;;;;;;66.53;43.20;;;6.60;99.90;;;;;;5091532;28;20055;-60
2022/03/23 05:34:48;;;;;;;62.00;43.10;;;6.60;99.90;;;;;;5091628;28;20126;-60
2022/03/23 05:37:15;;;;;;;63.67;42.13;;;6.60;99.90;;;;;;5090449;28;20496;-60
2022/03/23 05:39:40;;;;;;;63.50;41.10;;;6.40;99.90;;;;;;5091831;28;20089;-60
2022/03/23 05:42:07;;;;;;;65.22;42.38;;;6.40;99.90;;;;;;5091482;28;20027;-59
2022/03/23 05:44:36;;;;;;;60.53;41.50;;;6.30;99.90;;;;;;5091410;28;20032;-60
2022/03/23 05:47:02;;;;;;;57.90;40.83;;;6.20;99.90;;;;;;5091132;28;20052;-60
2022/03/23 05:49:28;;;;;;;58.78;39.90;;;6.30;99.90;;;;;;5091244;28;20044;-60
2022/03/23 05:51:54;;;;;;;62.33;41.88;;;6.30;99.90;;;;;;5091338;28;20043;-60
2022/03/23 05:54:20;;;;;;;68.05;43.55;;;6.30;99.90;;;;;;5091347;28;20036;-60
2022/03/23 05:56:45;;;;;;;68.07;41.92;;;6.40;99.90;;;;;;5091378;28;20064;-59
2022/03/23 05:59:11;;;;;;;63.70;42.70;;;6.40;99.90;;;;;;5091508;28;20615;-60
2022/03/23 06:01:37;;;;;;;62.75;41.97;;;6.40;99.90;;;;;;5091574;28;20109;-60
2022/03/23 06:04:03;;;;;;;65.95;42.50;;;6.40;99.90;;;;;;5094878;28;20040;-60
2022/03/23 06:06:29;;;;;;;61.03;42.80;;;6.50;99.90;;;;;;5093661;28;20055;-60
2022/03/23 06:08:55;;;;;;;64.93;43.92;;;6.60;99.90;;;;;;5094737;28;20039;-61
2022/03/23 06:11:21;;;;;;;66.00;43.08;;;6.60;99.90;;;;;;5095014;28;20174;-60
2022/03/23 06:13:47;;;;;;;64.28;40.88;;;6.70;99.90;;;;;;5094845;28;20131;-61
2022/03/23 06:16:12;;;;;;;60.78;42.53;;;6.90;99.90;;;;;;5094706;28;20062;-61
2022/03/23 06:18:40;;;;;;;59.95;42.63;;;7.00;99.90;;;;;;5094501;28;20505;-62
2022/03/23 06:21:06;;;;;;;57.58;39.65;;;7.20;99.90;;;;;;5092798;28;20487;-59
2022/03/23 06:23:32;;;;;;;57.50;40.45;;;7.40;99.90;;;;;;5094622;28;20032;-59
2022/03/23 06:25:57;;;;;;;60.70;40.78;;;7.60;99.90;;;;;;5094650;28;20043;-61
2022/03/23 06:28:23;;;;;;;60.50;40.80;;;7.80;99.90;;;;;;5094550;28;20044;-61
2022/03/23 06:30:50;;;;;;;67.43;41.33;;;7.90;99.90;;;;;;5094305;28;20035;-61
2022/03/23 06:33:17;;;;;;;56.67;40.33;;;8.10;99.90;;;;;;5094328;28;20032;-60
2022/03/23 06:35:43;;;;;;;57.15;40.67;;;8.30;99.90;;;;;;5094547;28;20047;-60
2022/03/23 06:38:08;;;;;;;58.95;41.00;;;8.40;99.90;;;;;;5094329;28;20391;-60
2022/03/23 06:40:34;;;;;;;61.40;42.03;;;8.50;99.90;;;;;;5094216;28;20068;-60
2022/03/23 06:43:00;;;;;;;62.13;42.65;;;8.60;99.90;;;;;;5094137;28;20032;-60
2022/03/23 06:45:26;;;;;;;63.88;41.90;;;8.70;99.90;;;;;;5092977;28;20036;-60
2022/03/23 06:47:52;;;;;;;59.17;43.33;;;8.80;99.90;;;;;;5093848;28;20074;-60
2022/03/23 06:50:17;;;;;;;63.55;42.85;;;8.90;99.90;;;;;;5094383;28;20498;-60
2022/03/23 06:52:43;;;;;;;61.63;43.85;;;9.10;99.90;;;;;;5094180;28;20050;-60
2022/03/23 06:55:09;;;;;;;65.65;43.45;;;9.20;99.90;;;;;;5093873;28;20115;-60
2022/03/23 06:57:35;;;;;;;64.63;43.70;;;9.40;99.90;;;;;;5093863;28;20032;-60
2022/03/23 07:00:01;;;;;;;57.58;41.80;;;9.50;99.90;;;;;;5093973;28;20183;-60
2022/03/23 07:02:27;;;;;;;62.15;43.35;;;9.60;99.90;;;;;;5093811;28;20085;-60
2022/03/23 07:04:53;;;;;;;66.68;43.60;;;9.80;99.90;;;;;;5093658;28;20075;-60
2022/03/23 07:07:20;;;;;;;64.65;43.45;;;10.00;99.90;;;;;;5093640;28;20067;-60
2022/03/23 07:09:46;;;;;;;60.53;44.58;;;10.20;99.90;;;;;;5093548;28;20052;-60
2022/03/23 07:12:12;;;;;;;64.30;44.13;;;10.40;99.90;;;;;;5093972;28;20036;-59
2022/03/23 07:14:39;;;;;;;58.70;41.83;;;10.70;99.90;;;;;;5092674;28;20044;-60
2022/03/23 07:17:06;;;;;;;73.50;44.80;;;10.90;99.90;;;;;;5093409;28;20047;-60
2022/03/23 07:19:32;;;;;;;62.05;43.08;;;11.20;99.90;;;;;;5093432;28;20101;-60
2022/03/23 07:21:58;;;;;;;61.85;40.95;;;11.40;99.90;;;;;;5093456;28;20074;-60
2022/03/23 07:24:24;;;;;;;50.70;39.75;;;11.70;99.90;;;;;;5093279;28;20527;-60
2022/03/23 07:26:50;;;;;;;55.47;38.70;;;12.00;99.90;;;;;;5093318;28;20109;-60
2022/03/23 07:29:16;;;;;;;54.05;37.70;;;12.20;99.90;;;;;;5093154;28;20077;-60
2022/03/23 07:31:43;;;;;;;57.17;36.72;;;12.50;99.90;;;;;;5093080;28;20039;-60
2022/03/23 07:34:09;;;;;;;72.95;36.30;;;12.80;99.90;;;;;;5093064;28;20532;-60
2022/03/23 07:36:37;;;;;;;51.05;35.35;;;13.00;99.90;;;;;;5093167;28;20031;-59
2022/03/23 07:39:03;;;;;;;55.60;34.95;;;13.40;99.90;;;;;;5093077;28;20051;-59
2022/03/23 07:41:29;;;;;;;51.80;34.60;;;13.70;99.90;;;;;;5093210;28;20162;-60
2022/03/23 07:43:55;;;;;;;51.78;36.08;;;13.80;99.90;;;;;;5092896;28;20115;-59
2022/03/23 07:46:20;;;;;;;50.90;33.83;;;14.10;99.90;;;;;;5092539;28;20055;-59
2022/03/23 07:48:46;;;;;;;50.25;33.55;;;14.30;99.90;;;;;;5091555;28;20054;-60
2022/03/23 07:51:12;;;;;;;47.78;33.00;;;14.60;99.90;;;;;;5093176;28;20052;-60
2022/03/23 07:53:38;;;;;;;50.63;31.88;;;14.70;99.90;;;;;;5074066;28;20106;-60
2022/03/23 07:56:04;;;;;;;43.97;32.13;;;15.10;99.90;;;;;;5092926;28;20055;-61
2022/03/23 07:58:30;;;;;;;48.00;32.40;;;15.30;99.90;;;;;;5092907;28;20044;-60
2022/03/23 08:00:56;;;;;;;45.20;32.28;;;15.40;99.90;;;;;;5092613;28;20036;-61
2022/03/23 08:03:22;;;;;;;39.60;30.02;;;15.80;99.90;;;;;;5092876;28;20390;-60
2022/03/23 08:05:48;;;;;;;42.97;31.40;;;16.00;99.90;;;;;;5092557;28;20046;-60
2022/03/23 08:08:14;;;;;;;44.53;31.55;;;16.30;99.90;;;;;;5092617;28;20051;-60
2022/03/23 08:10:43;;;;;;;41.90;29.38;;;16.50;99.90;;;;;;5092438;28;20127;-60
2022/03/23 08:13:16;;;;;;;45.25;30.17;;;16.80;99.90;;;;;;5092380;28;20047;-61
2022/03/23 08:15:42;;;;;;;42.50;30.13;;;16.90;98.20;;;;;;5092687;28;20432;-60
2022/03/23 08:18:08;;;;;;;41.38;29.77;;;17.20;98.70;;;;;;5092746;28;20113;-60
2022/03/23 08:20:35;;;;;;;38.35;28.05;;;17.50;98.10;;;;;;5092317;28;20386;-60
2022/03/23 08:23:05;;;;;;;40.28;25.92;;;17.50;96.80;;;;;;5092523;28;20051;-60
2022/03/23 08:25:32;;;;;;;38.10;25.95;;;17.60;96.70;;;;;;5092106;28;20028;-60
2022/03/23 08:27:58;;;;;;;31.33;23.92;;;17.80;95.90;;;;;;5092193;28;20457;-59
2022/03/23 08:30:25;;;;;;;33.47;24.90;;;17.60;94.10;;;;;;5092596;28;20043;-59
2022/03/23 08:32:51;;;;;;;33.75;26.60;;;17.60;93.90;;;;;;5092398;28;20076;-59
2022/03/23 08:35:17;;;;;;;32.67;26.67;;;17.70;94.00;;;;;;5092481;28;20105;-59
2022/03/23 08:37:43;;;;;;;35.10;26.70;;;17.70;94.60;;;;;;5092193;28;20040;-59
2022/03/23 08:40:09;;;;;;;34.95;26.23;;;17.90;94.30;;;;;;5092058;28;20124;-60
2022/03/23 08:42:35;;;;;;;31.15;25.55;;;18.20;94.30;;;;;;5091817;28;20218;-59
2022/03/23 08:45:01;;;;;;;33.10;24.95;;;18.60;95.40;;;;;;5092012;28;20543;-59
2022/03/23 08:47:27;;;;;;;33.20;26.45;;;18.70;93.90;;;;;;5091738;28;20060;-60
2022/03/23 08:49:55;;;;;;;36.60;26.83;;;18.80;93.80;;;;;;5092017;28;20409;-59
2022/03/23 08:52:23;;;;;;;41.47;24.80;;;19.00;94.20;;;;;;5091906;28;20441;-59
2022/03/23 08:54:48;;;;;;;34.78;25.48;;;18.90;92.60;;;;;;5091937;28;20072;-59
2022/03/23 08:57:14;;;;;;;33.30;26.48;;;19.30;93.00;;;;;;5090846;28;20438;-59
2022/03/23 08:59:40;;;;;;;31.67;25.63;;;19.30;91.90;;;;;;5091912;28;20040;-59
2022/03/23 09:02:06;;;;;;;34.15;25.15;;;19.50;92.30;;;;;;5091930;28;20040;-60
2022/03/23 09:04:32;;;;;;;32.50;25.75;;;19.60;92.50;;;;;;5073369;28;20056;-59
2022/03/23 09:06:58;;;;;;;33.30;26.33;;;19.90;91.90;;;;;;5091776;28;20036;-59
2022/03/23 09:09:23;;;;;;;34.60;25.52;;;19.90;90.50;;;;;;5091666;28;20042;-58
2022/03/23 09:11:49;;;;;;;31.10;26.02;;;19.90;89.10;;;;;;5091668;28;20109;-59
2022/03/23 09:14:15;;;;;;;33.30;25.42;;;20.10;90.60;;;;;;5091827;28;20036;-59
2022/03/23 09:16:41;;;;;;;30.70;25.38;;;20.00;86.50;;;;;;5091850;28;20066;-59
2022/03/23 09:19:07;;;;;;;34.03;25.23;;;20.30;88.40;;;;;;5091941;28;20050;-59
2022/03/23 09:21:33;;;;;;;26.80;23.38;;;20.50;85.60;;;;;;5091627;28;20036;-59
2022/03/23 09:23:59;;;;;;;29.80;24.58;;;20.80;87.80;;;;;;5091417;28;20121;-59
2022/03/23 09:26:25;;;;;;;29.75;23.58;;;20.60;86.40;;;;;;5091823;28;20085;-59
2022/03/23 09:28:51;;;;;;;31.42;24.63;;;20.80;86.70;;;;;;5091888;28;20122;-59
2022/03/23 09:31:17;;;;;;;26.63;22.88;;;20.80;84.10;;;;;;5092676;28;20147;-59
2022/03/23 09:33:48;;;;;;;24.02;21.00;;;22.60;82.40;;;;;;5092277;28;20036;-58
2022/03/23 09:37:47;;;;;;;33.83;22.13;;;23.20;81.00;;;;;;5091920;28;20028;-58
2022/03/23 09:39:08;;;;;;;25.65;21.55;;;24.50;77.50;;;;;;5095682;28;20062;-58
2022/03/23 09:41:34;;;;;;;24.50;21.83;;;24.90;72.80;;;;;;5095834;28;20414;-59
2022/03/23 09:44:01;;;;;;;24.55;20.67;;;25.20;71.50;;;;;;5096066;28;20126;-58
2022/03/23 09:46:28;;;;;;;22.15;19.75;;;25.50;70.20;;;;;;5095593;28;20088;-57
2022/03/23 09:48:53;;;;;;;26.20;20.83;;;25.20;68.70;;;;;;5095740;28;20075;-58
2022/03/23 09:51:21;;;;;;;23.83;20.77;;;25.10;68.10;;;;;;5095528;28;20139;-58
2022/03/23 09:53:48;;;;;;;20.63;18.33;;;24.70;67.00;;;;;;5095903;28;20054;-58
2022/03/23 09:56:14;;;;;;;24.80;19.10;;;24.60;67.00;;;;;;5095603;28;20044;-58
2022/03/23 09:58:43;;;;;;;20.05;17.95;;;24.30;66.90;;;;;;5095654;28;20040;-58
2022/03/23 10:01:28;;;;;;;20.20;18.10;;;23.90;64.80;;;;;;5094205;28;20040;-57
2022/03/23 10:04:45;;;;;;;28.80;19.15;;;23.70;64.90;;;;;;5095177;28;20040;-57
2022/03/23 10:07:27;;;;;;;20.55;17.65;;;23.70;61.60;;;;;;5095465;28;20039;-59
2022/03/23 10:10:23;;;;;;;21.05;17.50;;;23.50;62.60;;;;;;5095170;28;20064;-57
2022/03/23 10:13:17;;;;;;;19.83;17.50;;;23.20;62.40;;;;;;5095293;28;20040;-58
2022/03/23 10:16:16;;;;;;;20.42;18.42;;;24.00;61.90;;;;;;5095582;28;20085;-57
2022/03/23 10:18:56;;;;;;;25.05;17.85;;;23.70;61.60;;;;;;5095120;28;20040;-58
2022/03/23 10:21:25;;;;;;;20.00;17.58;;;23.40;61.00;;;;;;5095353;28;20394;-58
2022/03/23 10:24:11;;;;;;;24.30;17.95;;;23.50;60.80;;;;;;5095160;28;20036;-58
2022/03/23 10:26:38;;;;;;;19.83;17.15;;;23.20;60.20;;;;;;5095026;28;20118;-58
2022/03/23 10:29:10;;;;;;;23.48;18.23;;;23.40;60.40;;;;;;5094966;28;20517;-58
2022/03/23 10:31:36;;;;;;;24.65;18.30;;;24.00;61.20;;;;;;5095363;28;20075;-58
2022/03/23 10:34:08;;;;;;;21.67;17.95;;;24.60;62.40;;;;;;5092631;28;20121;-58
2022/03/23 10:36:40;;;;;;;21.77;17.42;;;24.30;59.60;;;;;;5106407;28;20193;-58
2022/03/23 10:39:16;;;;;;;21.58;17.70;;;24.50;60.70;;;;;;5094365;28;20371;-58
2022/03/23 10:41:43;;;;;;;23.15;17.40;;;24.90;61.50;;;;;;5093804;28;20051;-58
2022/03/23 10:44:16;;;;;;;24.02;18.58;;;25.20;60.30;;;;;;5094781;28;20042;-57
2022/03/23 10:46:42;;;;;;;23.10;18.83;;;25.30;60.20;;;;;;5094510;28;20378;-57
2022/03/23 10:49:09;;;;;;;23.88;19.77;;;25.50;59.80;;;;;;5093197;28;20048;-57
2022/03/23 10:51:36;;;;;;;25.30;20.13;;;25.80;61.30;;;;;;5095034;28;20089;-58
2022/03/23 10:54:31;;;;;;;25.27;18.48;;;25.40;60.00;;;;;;5094337;28;20131;-57
2022/03/23 10:56:58;;;;;;;28.60;18.00;;;25.80;61.80;;;;;;5012198;28;20061;-57
2022/03/23 10:59:26;;;;;;;24.65;18.23;;;25.10;59.60;;;;;;5012271;28;20042;-57
2022/03/23 11:02:00;;;;;;;34.53;18.73;;;24.90;59.60;;;;;;5012318;28;20571;-57
2022/03/23 11:04:51;;;;;;;23.13;18.40;;;25.50;59.50;;;;;;5012004;28;20046;-57
2022/03/23 11:07:22;;;;;;;25.00;16.83;;;25.30;57.60;;;;;;5011912;28;20548;-58
2022/03/23 11:18:08;;;;;;;24.02;12.27;;;27.00;56.00;;;;;;4994819;28;20058;-58
2022/03/23 11:20:44;;;;;;;17.60;11.30;;;26.80;53.70;;;;;;5011706;28;20050;-58
2022/03/23 11:23:23;;;;;;;19.27;12.82;;;26.60;52.90;;;;;;5011925;28;20049;-58
2022/03/23 11:25:49;;;;;;;;;;;27.00;54.70;;;;;;5012418;28;20045;-58
2022/03/23 11:28:16;;;;;;;19.15;9.10;;;27.30;53.10;;;;;;5011603;28;19924;-57
2022/03/23 11:30:43;;;;;;;21.42;11.15;;;27.50;52.20;;;;;;5011667;28;20042;-57
2022/03/23 11:33:15;;;;;;;19.50;11.67;;;27.40;52.60;;;;;;5045779;28;20044;-58
2022/03/23 11:35:47;;;;;;;22.75;10.45;;;27.80;52.60;;;;;;5093707;28;20047;-58
2022/03/23 11:38:12;;;;;;;23.20;12.18;;;28.60;52.90;;;;;;5093422;28;20036;-57
2022/03/23 11:40:41;;;;;;;23.50;10.90;;;28.60;51.30;;;;;;5093559;28;20089;-58
2022/03/23 11:43:10;;;;;;;24.85;12.13;;;28.50;51.30;;;;;;5093807;28;20039;-58
2022/03/23 11:45:38;;;;;;;22.98;11.10;;;28.60;50.80;;;;;;5093477;28;20397;-58
2022/03/23 11:48:26;;;;;;;21.98;11.93;;;29.10;51.70;;;;;;5093241;28;20063;-58
2022/03/23 11:51:28;;;;;;;18.23;12.10;;;29.40;50.10;;;;;;5093415;28;20075;-57
2022/03/23 11:54:06;;;;;;;19.40;11.00;;;29.60;49.40;;;;;;5092984;28;20065;-57
2022/03/23 11:56:56;;;;;;;17.17;10.77;;;29.20;49.20;;;;;;5093466;28;20484;-58
2022/03/23 11:59:23;;;;;;;24.33;11.63;;;29.40;48.20;;;;;;5092936;28;20286;-58
2022/03/23 12:01:50;;;;;;;20.27;11.85;;;29.30;50.20;;;;;;5092735;28;20047;-57
2022/03/23 12:04:21;;;;;;;22.30;11.93;;;29.70;50.70;;;;;;5092966;28;20051;-57
2022/03/23 12:07:02;;;;;;;23.63;10.55;;;29.50;49.50;;;;;;5093009;28;20032;-57
2022/03/23 12:09:44;;;;;;;18.33;8.05;;;29.20;50.70;;;;;;5093249;28;20398;-57
2022/03/23 12:12:26;;;;;;;24.23;11.52;;;29.50;49.10;;;;;;5092796;28;20472;-58
2022/03/23 12:15:13;;;;;;;18.33;11.07;;;29.50;49.40;;;;;;5092808;28;20048;-57
2022/03/23 12:18:02;;;;;;;23.95;12.75;;;30.40;49.90;;;;;;5089334;28;20497;-60
2022/03/23 12:20:37;;;;;;;21.33;10.70;;;29.70;48.90;;;;;;5094734;28;20039;-57
2022/03/23 12:23:14;;;;;;;21.25;10.73;;;29.70;48.60;;;;;;5092549;28;20040;-57
2022/03/23 12:26:17;;;;;;;22.98;10.20;;;29.20;48.50;;;;;;5091902;28;20036;-57
2022/03/23 12:28:50;;;;;;;20.92;10.85;;;28.90;48.70;;;;;;5090556;28;20127;-57
2022/03/23 12:31:16;;;;;;;27.75;11.90;;;29.30;48.90;;;;;;5090364;28;20043;-57
2022/03/23 12:34:04;;;;;;;22.92;9.68;;;29.70;49.60;;;;;;5090054;28;20032;-57
2022/03/23 12:36:56;;;;;;;24.20;9.20;;;30.00;48.40;;;;;;5091442;28;20110;-57
2022/03/23 12:39:53;;;;;;;21.50;8.70;;;29.40;48.70;;;;;;5091059;28;20052;-57
2022/03/23 12:42:28;;;;;;;18.95;8.20;;;29.80;48.00;;;;;;4988766;28;20073;-57
2022/03/23 12:44:57;;;;;;;21.83;9.63;;;29.70;49.20;;;;;;4990161;28;20034;-58
2022/03/23 12:47:27;;;;;;;22.25;10.15;;;29.20;49.40;;;;;;4991571;28;20045;-57
2022/03/23 12:58:25;;;;;;;20.15;8.18;;;29.60;49.80;;;;;;4988771;28;20046;-57
2022/03/23 13:00:53;;;;;;;24.23;10.68;;;28.60;48.20;;;;;;4991157;28;20117;-57
2022/03/23 13:03:22;;;;;;;23.13;9.52;;;28.10;49.00;;;;;;4991421;28;20547;-57
2022/03/23 13:05:59;;;;;;;28.05;8.20;;;28.00;49.00;;;;;;4990043;28;20057;-57
2022/03/23 13:08:32;;;;;;;22.08;8.25;;;28.20;50.60;;;;;;4990261;28;20038;-57